Warwick, United Kingdom
Current Conditions -  °F | °C
As of 3:20 PM on Thursday 18 Dec 2014 (Local Time) from EGBE Reporting Station
Broken Clouds Broken Clouds  
Wind Chill: 55°   Ceiling: 2300
Heat Index: 55°   Visibility: 6mi
Dew Point: 52°   Wind: 17mph
Humidity: 88%   Direction: 220°SW
Pressure: 29.71"   Gusts: NA
Location:  52.28°N, 1.58°W
Report Text: EGBE 181520Z 22015KT 9999 FEW019 BKN023 13/11 Q1006
Loading
Personal Weather Stations






























Interactive Weather Map New forecast layout! Learn more

10-Day Weather Forecast

Advertisements
Track Severe Weather on mobile